createdAt,value
2022-08-05T03:21:03.895Z,4.68
2022-08-05T03:23:35.591Z,4.93
2022-08-05T03:26:32.061Z,4.97
2022-08-05T03:28:59.798Z,4.55
2022-08-05T03:31:56.244Z,5.07
2022-08-05T03:34:20.686Z,5.00
2022-08-05T03:36:55.597Z,4.97
2022-08-05T03:39:27.320Z,4.85
2022-08-05T03:41:57.996Z,4.63
2022-08-05T03:44:28.936Z,4.60
2022-08-05T03:46:58.892Z,5.07
2022-08-05T03:49:31.149Z,4.85
2022-08-05T03:52:38.697Z,5.30
2022-08-05T03:56:01.658Z,4.68
2022-08-05T03:58:21.041Z,5.00
2022-08-05T04:01:01.347Z,4.65
2022-08-05T04:03:38.121Z,5.40
2022-08-05T04:06:09.312Z,4.78
2022-08-05T04:08:41.009Z,4.82
2022-08-05T04:11:11.029Z,4.88
2022-08-05T04:13:50.840Z,4.40
2022-08-05T04:16:24.156Z,5.05
2022-08-05T04:18:57.690Z,4.93
2022-08-05T04:22:08.318Z,4.82
2022-08-05T04:24:19.274Z,4.40
2022-08-05T04:26:52.250Z,4.68
2022-08-05T04:29:22.223Z,4.68
2022-08-05T04:31:52.600Z,4.63
2022-08-05T04:34:32.638Z,4.45
2022-08-05T04:37:05.625Z,4.47
2022-08-05T04:39:36.612Z,4.15
2022-08-05T04:42:07.996Z,4.70
2022-08-05T04:44:38.792Z,4.30
2022-08-05T04:47:20.200Z,4.15
2022-08-05T04:50:01.574Z,4.40
2022-08-05T04:52:36.250Z,4.82
2022-08-05T04:55:14.905Z,4.50
2022-08-05T04:57:47.481Z,3.92
2022-08-05T05:00:18.820Z,4.43
2022-08-05T05:02:53.308Z,4.18
2022-08-05T05:05:28.335Z,4.93
2022-08-05T05:08:03.029Z,4.88
2022-08-05T05:10:41.963Z,4.55
2022-08-05T05:13:25.572Z,4.38
2022-08-05T05:16:00.508Z,4.00
2022-08-05T05:18:35.369Z,4.55
2022-08-05T05:21:05.699Z,4.13
2022-08-05T05:24:02.550Z,4.05
2022-08-05T05:26:28.335Z,4.82
2022-08-05T05:29:14.168Z,4.35
2022-08-05T05:31:46.509Z,4.05
2022-08-05T05:34:21.173Z,4.03
2022-08-05T05:36:53.677Z,4.10
2022-08-05T05:39:23.309Z,4.18
2022-08-05T05:41:54.694Z,4.50
2022-08-05T05:44:36.419Z,4.10
2022-08-05T05:47:13.108Z,3.10
2022-08-05T05:49:52.642Z,3.95
2022-08-05T05:52:30.061Z,4.15
2022-08-05T05:55:13.097Z,3.80
2022-08-05T05:57:52.348Z,3.65
2022-08-05T06:00:27.740Z,4.07
2022-08-05T06:03:03.001Z,4.57
2022-08-05T06:05:32.756Z,3.70
2022-08-05T06:08:03.941Z,3.70
2022-08-05T06:10:36.654Z,3.70
2022-08-05T06:13:08.488Z,3.30
2022-08-05T06:16:30.596Z,3.92
2022-08-05T06:18:30.960Z,4.00
2022-08-05T06:21:01.472Z,4.50
2022-08-05T06:23:32.179Z,4.10
2022-08-05T06:26:24.065Z,3.38
2022-08-05T06:28:56.044Z,3.72
2022-08-05T06:31:30.491Z,4.03
2022-08-05T06:34:07.406Z,3.65
2022-08-05T06:36:57.513Z,3.75
2022-08-05T06:39:28.287Z,3.83
2022-08-05T06:42:01.281Z,3.20
2022-08-05T06:44:35.415Z,3.72
2022-08-05T06:47:05.157Z,3.78
2022-08-05T06:50:01.932Z,3.78
2022-08-05T06:52:37.828Z,3.65
2022-08-05T06:55:10.679Z,3.30
2022-08-05T06:57:57.534Z,3.33
2022-08-05T07:00:31.401Z,3.88
2022-08-05T07:03:00.965Z,4.00
2022-08-05T07:05:37.127Z,3.55
2022-08-05T07:08:11.022Z,3.75
2022-08-05T07:10:53.393Z,3.97
2022-08-05T07:17:59.722Z,3.65
2022-08-05T07:22:30.168Z,3.90
2022-08-05T07:25:22.695Z,3.63
2022-08-05T07:27:57.993Z,3.55
2022-08-05T07:30:32.598Z,3.72
2022-08-05T07:33:09.240Z,4.00
2022-08-05T07:36:03.870Z,3.88
2022-08-05T07:38:33.246Z,4.78
2022-08-05T07:42:07.063Z,4.20
2022-08-05T07:43:57.561Z,3.65
2022-08-05T07:46:29.397Z,3.72
2022-08-05T07:49:06.155Z,4.53
2022-08-05T07:51:48.663Z,4.15
2022-08-05T07:54:30.398Z,4.72
2022-08-05T07:57:22.753Z,4.10
2022-08-05T07:59:54.009Z,4.03
2022-08-05T08:02:31.382Z,4.30
2022-08-05T08:05:18.818Z,4.20
2022-08-05T08:08:00.215Z,4.97
2022-08-05T08:10:30.509Z,3.83
2022-08-05T08:13:00.734Z,4.50
2022-08-05T08:16:34.606Z,5.13
2022-08-05T08:18:21.798Z,4.88
2022-08-05T08:21:03.135Z,5.10
2022-08-05T08:24:02.637Z,4.80
2022-08-05T08:26:26.850Z,4.20
2022-08-05T08:29:09.727Z,4.75
2022-08-05T08:31:52.111Z,4.80
2022-08-05T08:34:30.557Z,4.15
2022-08-05T08:37:05.170Z,4.57
2022-08-05T08:42:32.610Z,4.85
2022-08-05T08:45:22.763Z,4.00
2022-08-05T08:48:12.528Z,4.05
2022-08-05T08:51:07.577Z,4.25
2022-08-05T08:53:44.998Z,3.92
2022-08-05T08:56:15.358Z,3.70
2022-08-05T08:58:48.574Z,3.40
2022-08-05T09:01:20.030Z,4.57
2022-08-05T09:03:57.402Z,4.03
2022-08-05T09:06:31.157Z,3.95
2022-08-05T09:09:03.109Z,4.25
2022-08-05T09:11:51.090Z,3.97
2022-08-05T09:14:57.715Z,3.70
2022-08-05T09:17:16.084Z,4.18
2022-08-05T09:20:08.438Z,3.85
2022-08-05T09:23:19.176Z,3.45
2022-08-05T09:26:02.418Z,4.50
2022-08-05T09:28:35.015Z,4.05
2022-08-05T09:32:38.593Z,3.60
2022-08-05T09:34:01.649Z,3.53
2022-08-05T09:36:45.712Z,3.92
2022-08-05T09:39:27.765Z,4.30
2022-08-05T09:42:23.152Z,4.07
2022-08-05T09:44:56.200Z,4.57
2022-08-05T09:47:36.383Z,3.90
2022-08-05T09:50:37.417Z,4.15
2022-08-05T09:53:09.150Z,3.90
2022-08-05T09:55:58.411Z,4.45
2022-08-05T09:58:33.510Z,3.72
2022-08-05T10:01:15.295Z,3.50
2022-08-05T10:04:03.137Z,4.30
2022-08-05T10:06:35.075Z,4.38
2022-08-05T10:09:25.023Z,3.70
2022-08-05T10:12:30.497Z,3.80
2022-08-05T10:15:22.515Z,3.15
2022-08-05T10:18:12.364Z,3.63
2022-08-05T10:20:48.314Z,3.95
2022-08-05T10:23:55.706Z,4.35
2022-08-05T10:26:14.494Z,3.03
2022-08-05T10:28:46.602Z,2.92
2022-08-05T10:32:49.379Z,3.65
2022-08-05T10:34:10.825Z,3.20
2022-08-05T10:36:42.717Z,3.23
2022-08-05T10:39:24.840Z,3.10
2022-08-05T10:42:18.474Z,3.22
2022-08-05T10:44:55.929Z,2.97
2022-08-05T10:47:36.766Z,2.90
2022-08-05T10:50:20.867Z,3.03
2022-08-05T10:53:03.257Z,2.83
2022-08-05T10:56:03.826Z,3.20
2022-08-05T10:58:23.317Z,2.92
2022-08-05T11:01:13.632Z,3.28
2022-08-05T11:04:12.016Z,2.88
2022-08-05T11:07:09.085Z,2.95
2022-08-05T11:09:47.049Z,2.97
2022-08-05T11:12:54.502Z,3.75
2022-08-05T11:15:59.074Z,2.83
2022-08-05T11:18:32.246Z,2.92
2022-08-05T11:21:11.183Z,3.08
2022-08-05T11:24:04.620Z,3.03
2022-08-05T11:26:43.463Z,2.67
2022-08-05T11:29:37.929Z,3.25
2022-08-05T11:32:28.279Z,2.53
2022-08-05T11:34:58.777Z,2.92
2022-08-05T11:38:28.477Z,3.20
2022-08-05T11:41:34.293Z,3.00
2022-08-05T11:44:05.797Z,3.00
2022-08-05T11:46:58.312Z,2.53
2022-08-05T11:49:33.933Z,2.85
2022-08-05T11:52:08.831Z,2.50
2022-08-05T11:54:43.426Z,2.75
2022-08-05T11:57:24.841Z,2.65
2022-08-05T11:59:56.305Z,2.50
2022-08-05T12:02:33.472Z,2.83
2022-08-05T12:05:17.927Z,3.03
2022-08-05T12:08:07.348Z,2.95
2022-08-05T12:10:45.612Z,2.75
2022-08-05T12:13:28.161Z,2.90
2022-08-05T12:16:15.070Z,2.47
2022-08-05T12:18:49.465Z,2.85
2022-08-05T12:21:30.450Z,2.75
2022-08-05T12:24:07.188Z,2.90
2022-08-05T12:26:43.981Z,2.40
2022-08-05T12:29:22.546Z,2.30
2022-08-05T12:31:56.139Z,2.75
2022-08-05T12:34:31.073Z,2.63
2022-08-05T12:37:10.573Z,2.63
2022-08-05T12:39:41.722Z,2.58
2022-08-05T12:42:20.432Z,2.72
2022-08-05T12:44:50.756Z,2.78
2022-08-05T12:47:31.783Z,2.83
2022-08-05T12:50:06.433Z,2.28
2022-08-05T12:52:38.782Z,2.45
2022-08-05T12:55:23.594Z,2.75
2022-08-05T12:58:48.440Z,2.45
2022-08-05T13:02:03.366Z,2.90
2022-08-05T13:03:43.281Z,2.88
2022-08-05T13:06:19.820Z,2.30
2022-08-05T13:08:51.440Z,2.85
2022-08-05T13:11:47.018Z,2.20
2022-08-05T13:14:36.562Z,2.30
2022-08-05T13:17:12.179Z,2.17
2022-08-05T13:19:51.867Z,2.80
2022-08-05T13:22:28.379Z,2.60
2022-08-05T13:25:05.159Z,2.58
2022-08-05T13:27:39.579Z,2.63
2022-08-05T13:30:34.733Z,2.55
2022-08-05T13:33:05.569Z,2.33
2022-08-05T13:35:47.395Z,2.55
2022-08-05T13:38:31.057Z,2.50
2022-08-05T13:41:06.470Z,2.33
2022-08-05T13:43:45.197Z,2.53
2022-08-05T13:46:50.583Z,2.40
2022-08-05T13:49:17.280Z,2.45
2022-08-05T13:51:47.161Z,2.80
2022-08-05T13:54:21.072Z,2.28
2022-08-05T13:56:55.423Z,2.25
2022-08-05T14:02:02.904Z,2.30
2022-08-05T14:04:54.623Z,2.50
2022-08-05T14:10:28.109Z,2.72
2022-08-05T14:12:59.733Z,2.17
2022-08-05T14:16:04.343Z,2.17
2022-08-05T14:18:23.222Z,3.15
2022-08-05T14:20:54.951Z,2.47
2022-08-05T14:23:27.439Z,2.72
2022-08-05T14:26:02.540Z,2.47
2022-08-05T14:28:34.522Z,2.55
2022-08-05T14:31:04.221Z,2.60
2022-08-05T14:34:00.361Z,2.38
2022-08-05T14:36:30.502Z,3.20
2022-08-05T14:39:00.210Z,2.97
2022-08-05T14:41:32.466Z,2.92
2022-08-05T14:44:14.480Z,2.72
2022-08-05T14:46:50.243Z,3.15
2022-08-05T14:49:21.173Z,2.97
2022-08-05T14:51:51.683Z,2.90
2022-08-05T14:54:29.757Z,3.20
2022-08-05T14:57:05.348Z,2.83
2022-08-05T14:59:43.152Z,3.00
2022-08-05T15:02:24.208Z,3.17
2022-08-05T15:04:55.285Z,2.65
2022-08-05T15:08:12.422Z,3.15
2022-08-05T15:10:14.289Z,3.00
2022-08-05T15:13:00.306Z,2.75
2022-08-05T15:15:54.087Z,3.00
2022-08-05T15:18:21.526Z,2.78
2022-08-05T15:20:52.673Z,2.70
2022-08-05T15:23:22.588Z,2.95
2022-08-05T15:25:56.645Z,2.95
2022-08-05T15:28:28.126Z,3.00
2022-08-05T15:30:58.400Z,2.70
2022-08-05T15:34:05.014Z,2.65
2022-08-05T15:36:24.468Z,2.95
2022-08-05T15:41:01.028Z,2.60
2022-08-05T15:41:56.014Z,3.03
2022-08-05T15:44:26.411Z,2.78
2022-08-05T15:46:59.262Z,2.70
2022-08-05T15:49:55.173Z,3.08
2022-08-05T15:52:29.140Z,3.00
2022-08-05T15:57:49.010Z,3.10
2022-08-05T16:00:26.510Z,2.97
2022-08-05T16:03:09.229Z,2.95
2022-08-05T16:05:39.163Z,3.60
2022-08-05T16:08:16.111Z,3.13
2022-08-05T16:10:45.777Z,3.10
2022-08-05T16:13:19.391Z,3.03
2022-08-05T16:15:53.722Z,4.18
2022-08-05T16:18:28.093Z,3.25
2022-08-05T16:20:59.870Z,3.30
2022-08-05T16:23:53.744Z,3.00
2022-08-05T16:26:26.431Z,2.60
2022-08-05T16:28:57.085Z,3.40
2022-08-05T16:31:27.786Z,3.07
2022-08-05T16:34:17.888Z,3.30
2022-08-05T16:36:47.888Z,3.15
2022-08-05T16:39:20.606Z,3.03
2022-08-05T16:42:14.697Z,3.33
2022-08-05T16:44:40.097Z,3.72
2022-08-05T16:47:28.805Z,3.05
2022-08-05T16:50:03.364Z,3.38
2022-08-05T16:52:33.664Z,3.50
2022-08-05T16:55:05.522Z,3.03
2022-08-05T17:00:26.010Z,3.25
2022-08-05T17:03:09.312Z,3.78
2022-08-05T17:05:50.273Z,3.03
2022-08-05T17:08:36.001Z,2.88
2022-08-05T17:11:16.884Z,3.55
2022-08-05T17:13:46.934Z,3.13
2022-08-05T17:16:33.027Z,3.33
2022-08-05T17:19:03.590Z,3.88
2022-08-05T17:21:39.792Z,3.95
2022-08-05T17:27:01.598Z,3.45
2022-08-05T17:29:33.098Z,3.47
2022-08-05T17:32:17.297Z,4.38
2022-08-05T17:37:39.648Z,3.30
2022-08-05T17:40:15.915Z,3.45
2022-08-05T17:42:50.859Z,3.45
2022-08-05T17:45:24.846Z,2.83
2022-08-05T17:47:56.466Z,2.38
2022-08-05T17:50:30.392Z,3.30
2022-08-05T17:53:02.915Z,3.22
2022-08-05T18:00:50.769Z,3.70
2022-08-05T18:03:58.575Z,3.70
2022-08-05T18:08:52.626Z,3.55
2022-08-05T18:11:32.947Z,4.25
2022-08-05T18:19:56.345Z,4.43
2022-08-05T18:22:45.918Z,4.60
2022-08-05T18:25:17.249Z,4.00
2022-08-05T18:27:52.523Z,3.70
2022-08-05T18:33:00.474Z,3.63
2022-08-05T18:35:49.407Z,4.00
2022-08-05T18:38:26.033Z,4.35
2022-08-05T18:41:56.590Z,4.60
2022-08-05T18:43:49.130Z,3.97
2022-08-05T18:46:20.755Z,4.30
2022-08-05T18:48:52.785Z,4.93
2022-08-05T18:52:04.400Z,4.45
2022-08-05T18:54:31.965Z,3.80
2022-08-05T18:57:02.702Z,4.25
2022-08-05T18:59:44.036Z,4.10
2022-08-05T19:02:26.694Z,4.30
2022-08-05T19:05:02.532Z,4.35
2022-08-05T19:07:52.374Z,3.77
2022-08-05T19:10:28.001Z,3.70
2022-08-05T19:12:58.610Z,4.00
2022-08-05T19:15:58.902Z,3.60
2022-08-05T19:18:22.619Z,4.20
2022-08-05T19:20:53.646Z,4.60
2022-08-05T19:24:06.524Z,4.15
2022-08-05T19:26:13.846Z,4.35
2022-08-05T19:28:44.426Z,4.20
2022-08-05T19:31:18.046Z,4.38
2022-08-05T19:33:56.462Z,3.95
2022-08-05T19:36:29.514Z,3.30
2022-08-05T19:39:00.901Z,3.22
2022-08-05T19:42:05.690Z,2.67
2022-08-05T19:44:21.938Z,2.70
2022-08-05T19:46:52.218Z,2.97
2022-08-05T19:49:23.525Z,3.00
2022-08-05T19:52:05.328Z,3.08
2022-08-05T19:54:38.584Z,2.55
2022-08-05T19:57:09.878Z,2.70
2022-08-05T19:59:56.195Z,3.00
2022-08-05T20:02:33.478Z,2.80
2022-08-05T20:05:09.597Z,3.08
2022-08-05T20:07:48.173Z,2.90
2022-08-05T20:10:22.206Z,2.88
2022-08-05T20:12:55.032Z,2.75
2022-08-05T20:15:51.568Z,2.92
2022-08-05T20:18:32.781Z,2.72
2022-08-05T20:21:07.401Z,2.92
2022-08-05T20:23:51.211Z,2.90
2022-08-05T20:26:25.689Z,3.35
2022-08-05T20:31:42.832Z,2.63
2022-08-05T20:34:20.444Z,3.97
2022-08-05T20:36:51.306Z,3.95
2022-08-05T20:39:20.990Z,4.18
2022-08-05T20:41:51.059Z,5.85
2022-08-05T20:44:30.714Z,7.53
2022-08-05T20:47:03.264Z,6.28
2022-08-05T20:49:39.282Z,6.18
2022-08-05T20:52:12.232Z,6.75
2022-08-05T20:54:42.905Z,6.07
2022-08-05T20:57:43.530Z,7.13
2022-08-05T21:00:40.809Z,5.93
2022-08-05T21:05:53.752Z,5.10
2022-08-05T21:08:41.413Z,5.70
2022-08-05T21:11:12.653Z,6.00
2022-08-05T21:13:47.766Z,4.60
2022-08-05T21:16:27.614Z,5.60
2022-08-05T21:19:01.675Z,5.05
2022-08-05T21:21:39.848Z,5.00
2022-08-05T21:24:22.277Z,5.10
2022-08-05T21:26:58.250Z,5.28
2022-08-05T21:29:31.850Z,4.32
2022-08-05T21:32:03.954Z,4.78
2022-08-05T21:34:35.618Z,4.60
2022-08-05T21:37:07.965Z,4.78
2022-08-05T21:39:40.441Z,4.88
2022-08-05T21:42:40.873Z,4.60
2022-08-05T21:45:01.276Z,4.72
2022-08-05T21:47:54.994Z,5.18
2022-08-05T21:50:22.173Z,4.93
2022-08-05T21:52:51.881Z,5.32
2022-08-05T21:55:43.156Z,4.93
2022-08-05T21:58:13.320Z,5.50
2022-08-05T22:00:50.965Z,5.35
2022-08-05T22:03:48.452Z,4.90
2022-08-05T22:06:11.518Z,5.10
2022-08-05T22:08:42.618Z,4.38
2022-08-05T22:11:15.714Z,4.25
2022-08-05T22:14:33.883Z,3.45
2022-08-05T22:16:51.043Z,3.58
2022-08-05T22:20:00.467Z,4.32
2022-08-05T22:22:12.049Z,4.05
2022-08-05T22:24:59.391Z,3.63
2022-08-05T22:28:10.496Z,3.58
2022-08-05T22:30:35.434Z,3.75
2022-08-05T22:33:15.643Z,4.68
2022-08-05T22:35:48.641Z,3.92
2022-08-05T22:38:19.797Z,2.92
2022-08-05T22:40:55.208Z,3.92
2022-08-05T22:43:37.015Z,3.58
2022-08-05T22:46:13.615Z,3.58
2022-08-05T22:48:52.966Z,3.53
2022-08-05T22:52:03.120Z,3.40
2022-08-05T22:54:12.299Z,3.33
2022-08-05T22:56:41.764Z,3.22
2022-08-05T22:59:46.500Z,3.40
2022-08-05T23:02:05.644Z,3.40
2022-08-05T23:04:37.634Z,3.00
2022-08-05T23:07:07.565Z,2.55
2022-08-05T23:09:58.310Z,3.50
2022-08-05T23:12:28.583Z,2.45
2022-08-05T23:15:00.192Z,3.88
2022-08-05T23:17:59.608Z,3.28
2022-08-05T23:20:24.422Z,3.20
2022-08-05T23:22:56.349Z,3.28
2022-08-05T23:25:51.905Z,3.17
2022-08-05T23:28:17.260Z,3.20
2022-08-05T23:30:53.735Z,3.33
2022-08-05T23:34:03.110Z,3.00
2022-08-05T23:36:14.457Z,3.55
2022-08-05T23:38:44.745Z,3.53
2022-08-05T23:41:14.355Z,3.35
2022-08-05T23:44:04.292Z,4.25
2022-08-05T23:46:34.693Z,3.10
2022-08-05T23:49:15.700Z,4.78
2022-08-05T23:52:03.233Z,4.13
2022-08-05T23:54:38.667Z,3.90
2022-08-05T23:57:10.250Z,3.88
